Claremont, NH (03743)

20:17 EDT le 31 octobre 2014 (GMT -0400)
Airport Hill | Change Station
CLOSE
Current Station
Stations météorologiques personnelles
Location: Claremont, NH
Altitude: 545 ft
Stations météo à proximité

Alt. 545 ft 43.37 °N, 72.37 °W | Updated 4 seconds ago

Couvert
Couvert
44.9 ° F
Paraît 45 ° F
N
0.0
Vent Variable Vent de ENE
Gusts 0.0 mph

Aujourd'hui
Haut(e) -- | Bas -- ° F
--% Risque de précip.
Hier
Haut(e) -- | Bas -- ° F
Precip. -- pouce
7:23 AM 5:42 PM
Premier quartier, 60% visible
Pression 30.03 pouce
Visibilité 10.0 Miles terrestres
Nuages Couvert 5500 ft
Refroidissement éolien 45 ° F
Point de rosée 36 ° F
Humidité 71%
Précipitations 0.00 pouce
Profondeur de la couche neigeuse Non disponible.
UV 0 sur 12
Pollen .10 sur 12
Qualité de l'air Non disponible.
Flu Activity Non disponible.
METAR KVSF 312354Z AUTO 00000KT 10SM OVC055 07/03 A3001 RMK AO2 SLP167 T00670028 10094 20067 53009

More Conditions Fewer Conditions

Pression 30.03 pouce
Visibilité 10.0 Miles terrestres
Nuages Couvert 5500 ft
Refroidissement éolien 45 ° F
Point de rosée 36 ° F
Humidité 71%
Précipitations 0.00 pouce
Profondeur de la couche neigeuse Non disponible.
UV 0 sur 12
Pollen .10 sur 12
Qualité de l'air Non disponible.
Flu Activity Non disponible.
METAR KVSF 312354Z AUTO 00000KT 10SM OVC055 07/03 A3001 RMK AO2 SLP167 T00670028 10094 20067 53009

More Conditions Fewer Conditions

10-Day Weather Forecast

Almanac

Astronomie

Oct. 31, 2014 Lever Coucher
Temps réel
Crépuscule civil
Crépuscule nautique
Crépuscule astronomique
Lune
Durée de lumière visible
Longueur du jour
Tomorrow will be .
, % of the Moon is Illuminated

Extrêmes aujourd'hui

State Highs State Lows

Community

WunderPhotos

Upload Photos

1,766,788 Photos téléchargées !

WunderBlogs® & News

Nearby

Qualité de l'air

  Qualité de l'air Indice de la qualité de l'air Polluant
Not available.

Épaisseur de neige

Station Depth Altitude

Activité sismique

Ville Distance Mag. Time & Date
Minimum magnitude displayed is 2.5.

Températures des eaux côtières

Lieu Température

Stations météo à proximité